createdAt,value
2019-05-02T00:00:08.800Z,8.2
2019-05-02T00:01:18.037Z,8.1
2019-05-02T00:02:28.769Z,8.1
2019-05-02T00:03:41.023Z,8.1
2019-05-02T00:04:50.935Z,8.1
2019-05-02T00:05:56.374Z,8.1
2019-05-02T00:07:05.864Z,8.1
2019-05-02T00:08:15.016Z,8.1
2019-05-02T00:09:24.354Z,8
2019-05-02T00:10:33.678Z,8
2019-05-02T00:11:43.048Z,8
2019-05-02T00:12:52.356Z,8
2019-05-02T00:14:01.692Z,8
2019-05-02T00:15:11.018Z,8
2019-05-02T00:16:20.459Z,8.1
2019-05-02T00:17:29.843Z,8
2019-05-02T00:18:39.152Z,8
2019-05-02T00:19:49.774Z,8
2019-05-02T00:21:01.313Z,8
2019-05-02T00:22:07.120Z,8
2019-05-02T00:23:16.643Z,7.9
2019-05-02T00:24:25.811Z,7.9
2019-05-02T00:25:35.236Z,7.9
2019-05-02T00:26:44.368Z,7.9
2019-05-02T00:27:53.851Z,7.9
2019-05-02T00:29:03.043Z,7.9
2019-05-02T00:30:12.390Z,7.9
2019-05-02T00:31:21.778Z,7.9
2019-05-02T00:32:31.055Z,7.8
2019-05-02T00:33:40.413Z,7.9
2019-05-02T00:34:49.767Z,7.8
2019-05-02T00:35:59.017Z,7.8
2019-05-02T00:37:08.361Z,7.9
2019-05-02T00:38:17.696Z,7.9
2019-05-02T00:39:27.044Z,7.9
2019-05-02T00:40:36.501Z,7.9
2019-05-02T00:41:45.701Z,7.9
2019-05-02T00:42:58.130Z,7.8
2019-05-02T00:44:05.969Z,7.8
2019-05-02T00:45:14.134Z,7.9
2019-05-02T00:46:24.135Z,7.8
2019-05-02T00:47:33.453Z,7.9
2019-05-02T00:48:42.847Z,7.9
2019-05-02T00:49:52.165Z,7.8
2019-05-02T00:51:01.452Z,7.8
2019-05-02T00:52:10.781Z,7.8
2019-05-02T00:53:20.139Z,7.7
2019-05-02T00:54:29.418Z,7.7
2019-05-02T00:55:38.875Z,7.7
2019-05-02T00:56:48.078Z,7.8
2019-05-02T00:57:57.414Z,7.8
2019-05-02T00:59:07.324Z,7.7
2019-05-02T01:00:18.234Z,7.8
2019-05-02T01:01:29.357Z,7.8
2019-05-02T01:02:35.781Z,7.8
2019-05-02T01:03:47.023Z,7.8
2019-05-02T01:04:53.375Z,7.9
2019-05-02T01:06:02.702Z,8
2019-05-02T01:07:12.022Z,8
2019-05-02T01:08:21.519Z,8
2019-05-02T01:09:30.681Z,8
2019-05-02T01:10:39.977Z,8
2019-05-02T01:11:49.377Z,8
2019-05-02T01:12:58.767Z,8
2019-05-02T01:14:08.067Z,8
2019-05-02T01:15:17.337Z,8.1
2019-05-02T01:16:26.687Z,8.1
2019-05-02T01:17:35.963Z,8.1
2019-05-02T01:18:45.324Z,8
2019-05-02T01:19:54.632Z,8
2019-05-02T01:21:04.218Z,8.1
2019-05-02T01:22:15.823Z,8.1
2019-05-02T01:23:22.956Z,8.1
2019-05-02T01:24:34.054Z,8.1
2019-05-02T01:25:41.525Z,8.1
2019-05-02T01:26:50.639Z,8.1
2019-05-02T01:27:59.977Z,8.1
2019-05-02T01:29:09.530Z,8.1
2019-05-02T01:30:19.068Z,8.1
2019-05-02T01:31:27.983Z,8.1
2019-05-02T01:32:37.293Z,8.1
2019-05-02T01:33:46.835Z,8.1
2019-05-02T01:34:56.368Z,8.1
2019-05-02T01:36:06.210Z,8.1
2019-05-02T01:37:20.578Z,8.1
2019-05-02T01:38:26.184Z,8.1
2019-05-02T01:39:33.383Z,8.1
2019-05-02T01:40:42.765Z,8.1
2019-05-02T01:41:52.030Z,8.1
2019-05-02T01:43:01.377Z,8.2
2019-05-02T01:44:10.653Z,8.1
2019-05-02T01:45:20.016Z,8.1
2019-05-02T01:46:29.371Z,8.1
2019-05-02T01:47:38.750Z,8.2
2019-05-02T01:48:48.031Z,8.1
2019-05-02T01:49:59.136Z,8.1
2019-05-02T01:51:09.901Z,8.1
2019-05-02T01:52:18.834Z,8.1
2019-05-02T01:53:29.117Z,8.1
2019-05-02T01:54:34.742Z,8.2
2019-05-02T01:55:44.266Z,8.2
2019-05-02T01:56:53.385Z,8.1
2019-05-02T01:58:02.726Z,8.1
2019-05-02T01:59:12.191Z,8.1
2019-05-02T02:00:21.426Z,8.2
2019-05-02T02:01:30.723Z,8.1
2019-05-02T02:02:40.115Z,8.1
2019-05-02T02:03:49.450Z,8.1
2019-05-02T02:04:58.744Z,8.1
2019-05-02T02:06:09.881Z,8.1
2019-05-02T02:07:19.908Z,8.1
2019-05-02T02:08:27.201Z,8.1
2019-05-02T02:09:38.697Z,8.1
2019-05-02T02:10:45.482Z,8.1
2019-05-02T02:11:54.771Z,8.1
2019-05-02T02:13:05.160Z,8.1
2019-05-02T02:14:16.163Z,8.1
2019-05-02T02:15:25.018Z,8.1
2019-05-02T02:16:35.157Z,8.1
2019-05-02T02:17:41.576Z,8.1
2019-05-02T02:18:50.777Z,8.1
2019-05-02T02:20:00.170Z,8
2019-05-02T02:21:09.745Z,8
2019-05-02T02:22:18.821Z,8
2019-05-02T02:23:28.291Z,8.1
2019-05-02T02:24:38.425Z,8.1
2019-05-02T02:25:46.941Z,8
2019-05-02T02:26:56.133Z,8
2019-05-02T02:28:05.978Z,8
2019-05-02T02:29:15.951Z,8
2019-05-02T02:30:26.595Z,8
2019-05-02T02:31:39.512Z,8
2019-05-02T02:32:43.935Z,8
2019-05-02T02:33:53.436Z,8.1
2019-05-02T02:35:03.347Z,8.1
2019-05-02T02:36:11.972Z,8.1
2019-05-02T02:38:33.201Z,8
2019-05-02T02:39:39.987Z,8
2019-05-02T02:40:49.337Z,8.1
2019-05-02T02:41:58.628Z,8.1
2019-05-02T02:43:22.404Z,8.1
2019-05-02T02:44:17.314Z,8.1
2019-05-02T02:45:26.689Z,8
2019-05-02T02:46:37.678Z,8
2019-05-02T02:47:45.476Z,8
2019-05-02T02:48:54.761Z,8
2019-05-02T02:50:05.302Z,8
2019-05-02T02:51:21.958Z,8.1
2019-05-02T02:52:22.787Z,8
2019-05-02T02:53:32.018Z,8
2019-05-02T02:54:43.071Z,8
2019-05-02T02:56:00.728Z,8
2019-05-02T02:57:00.003Z,8.1
2019-05-02T02:58:09.348Z,8.1
2019-05-02T03:00:28.263Z,8
2019-05-02T03:01:37.374Z,8
2019-05-02T03:02:48.371Z,7.9
2019-05-02T03:04:01.705Z,8
2019-05-02T03:05:05.408Z,8
2019-05-02T03:06:14.722Z,8.1
2019-05-02T03:07:26.265Z,8
2019-05-02T03:08:44.385Z,7.9
2019-05-02T03:09:42.696Z,8
2019-05-02T03:10:52.311Z,8
2019-05-02T03:12:04.494Z,8
2019-05-02T03:13:14.873Z,7.9
2019-05-02T03:14:21.080Z,7.9
2019-05-02T03:15:30.427Z,7.9
2019-05-02T03:16:46.781Z,7.9
2019-05-02T03:17:49.085Z,8
2019-05-02T03:18:58.411Z,7.9
2019-05-02T03:22:26.427Z,8
2019-05-02T03:23:35.763Z,8
2019-05-02T03:24:46.736Z,8
2019-05-02T03:25:54.528Z,7.9
2019-05-02T03:27:03.767Z,7.9
2019-05-02T03:28:18.391Z,8
2019-05-02T03:29:22.597Z,7.9
2019-05-02T03:30:36.780Z,7.9
2019-05-02T03:31:41.138Z,8
2019-05-02T03:33:02.448Z,7.9
2019-05-02T03:35:09.102Z,7.9
2019-05-02T03:36:28.468Z,7.9
2019-05-02T03:37:27.811Z,8
2019-05-02T03:38:37.115Z,8
2019-05-02T03:39:49.294Z,7.9
2019-05-02T03:40:56.153Z,8
2019-05-02T03:42:05.398Z,8
2019-05-02T03:43:18.879Z,8
2019-05-02T03:44:25.755Z,8
2019-05-02T03:45:39.747Z,7.9
2019-05-02T03:46:42.567Z,7.9
2019-05-02T03:47:51.768Z,7.9
2019-05-02T03:49:06.968Z,7.9
2019-05-02T03:50:10.434Z,7.9
2019-05-02T03:51:24.272Z,8
2019-05-02T03:52:29.484Z,8
2019-05-02T03:53:38.739Z,8
2019-05-02T03:54:49.902Z,8
2019-05-02T03:56:10.207Z,8
2019-05-02T03:57:07.597Z,8
2019-05-02T03:58:17.541Z,8
2019-05-02T03:59:36.729Z,8
2019-05-02T04:00:35.608Z,8
2019-05-02T04:01:44.906Z,8
2019-05-02T04:03:00.137Z,8
2019-05-02T04:04:03.684Z,8
2019-05-02T04:05:12.901Z,8.1
2019-05-02T04:06:23.641Z,8.1
2019-05-02T04:07:39.298Z,8.1
2019-05-02T04:08:40.934Z,8.1
2019-05-02T04:09:50.360Z,8.1
2019-05-02T04:11:01.697Z,8.1
2019-05-02T04:12:18.230Z,8.1
2019-05-02T04:13:18.334Z,8.1
2019-05-02T04:14:37.157Z,8.1
2019-05-02T04:15:37.510Z,8.1
2019-05-02T04:16:48.454Z,8.1
2019-05-02T04:17:55.643Z,8.1
2019-05-02T04:19:04.957Z,8.1
2019-05-02T04:20:14.269Z,8.1
2019-05-02T04:21:25.807Z,8
2019-05-02T04:22:33.014Z,8.1
2019-05-02T04:23:42.281Z,8.2
2019-05-02T04:24:54.287Z,8.1
2019-05-02T04:26:06.622Z,8.1
2019-05-02T04:27:10.306Z,8.1
2019-05-02T04:28:19.636Z,8.1
2019-05-02T04:29:31.053Z,8.1
2019-05-02T04:30:38.326Z,8.1
2019-05-02T04:31:47.807Z,8.1
2019-05-02T04:32:57.841Z,8.1
2019-05-02T04:34:13.480Z,8.1
2019-05-02T04:35:15.779Z,8.1
2019-05-02T04:36:25.028Z,8.1
2019-05-02T04:38:47.840Z,8.2
2019-05-02T04:39:53.637Z,8.3
2019-05-02T04:41:02.592Z,8.2
2019-05-02T04:42:18.467Z,8.2
2019-05-02T04:43:21.344Z,8.2
2019-05-02T04:44:40.620Z,8.2
2019-05-02T04:45:52.704Z,8.3
2019-05-02T04:46:49.331Z,8.3
2019-05-02T04:48:03.647Z,8.2
2019-05-02T04:49:09.138Z,8.2
2019-05-02T04:50:19.696Z,8.2
2019-05-02T04:51:28.540Z,8.3
2019-05-02T04:52:38.189Z,8.3
2019-05-02T04:53:48.891Z,8.3
2019-05-02T04:55:07.853Z,8.3
2019-05-02T04:56:06.775Z,8.2
2019-05-02T04:57:13.382Z,8.2
2019-05-02T04:58:27.485Z,8.2
2019-05-02T04:59:33.208Z,8.2
2019-05-02T05:00:45.002Z,8.3
2019-05-02T05:01:56.884Z,8.3
2019-05-02T05:03:00.137Z,8.3
2019-05-02T05:04:09.643Z,8.3
2019-05-02T05:05:25.413Z,8.2
2019-05-02T05:06:28.365Z,8.3
2019-05-02T05:07:40.679Z,8.3
2019-05-02T05:08:48.213Z,8.3
2019-05-02T05:09:57.786Z,8.3
2019-05-02T05:11:07.586Z,8.3
2019-05-02T05:13:26.355Z,8.4
2019-05-02T05:14:38.999Z,8.4
2019-05-02T05:15:48.629Z,8.3
2019-05-02T05:16:55.565Z,8.4
2019-05-02T05:18:04.342Z,8.4
2019-05-02T05:19:11.031Z,8.4
2019-05-02T05:20:20.444Z,8.4
2019-05-02T05:21:29.705Z,8.4
2019-05-02T05:22:44.117Z,8.4
2019-05-02T05:23:51.653Z,8.5
2019-05-02T05:24:58.272Z,8.4
2019-05-02T05:26:08.596Z,8.4
2019-05-02T05:27:18.746Z,8.4
2019-05-02T05:28:27.230Z,8.5
2019-05-02T05:29:37.448Z,8.5
2019-05-02T05:30:46.755Z,8.5
2019-05-02T05:32:02.542Z,8.5
2019-05-02T05:33:04.326Z,8.5
2019-05-02T05:34:13.855Z,8.5
2019-05-02T05:35:23.021Z,8.5
2019-05-02T05:36:33.832Z,8.6
2019-05-02T05:37:43.114Z,8.5
2019-05-02T05:38:51.075Z,8.6
2019-05-02T05:40:00.539Z,8.6
2019-05-02T05:41:12.889Z,8.6
2019-05-02T05:42:23.088Z,8.6
2019-05-02T05:43:28.739Z,8.6
2019-05-02T05:44:39.849Z,8.7
2019-05-02T05:45:53.938Z,8.6
2019-05-02T05:46:58.106Z,8.7
2019-05-02T05:48:05.938Z,8.7
2019-05-02T05:49:18.263Z,8.7
2019-05-02T05:50:24.650Z,8.8
2019-05-02T05:51:34.036Z,8.8
2019-05-02T05:52:43.474Z,8.8
2019-05-02T05:53:56.664Z,8.8
2019-05-02T05:55:04.685Z,8.8
2019-05-02T05:56:11.459Z,8.9
2019-05-02T05:57:21.142Z,9
2019-05-02T05:58:30.265Z,8.8
2019-05-02T05:59:39.628Z,8.9
2019-05-02T06:00:53.653Z,8.9
2019-05-02T06:01:58.364Z,9
2019-05-02T06:04:19.228Z,8.9
2019-05-02T06:05:27.598Z,9
2019-05-02T06:06:37.577Z,9
2019-05-02T06:07:46.969Z,9.1
2019-05-02T06:08:55.382Z,9
2019-05-02T06:10:07.661Z,9.1
2019-05-02T06:11:14.789Z,9
2019-05-02T06:12:26.026Z,9.1
2019-05-02T06:13:32.058Z,8.9
2019-05-02T06:14:41.379Z,9
2019-05-02T06:16:01.499Z,9.1
2019-05-02T06:17:00.112Z,9
2019-05-02T06:18:09.728Z,9.1
2019-05-02T06:19:19.056Z,9.1
2019-05-02T06:20:30.520Z,9.1
2019-05-02T06:21:39.917Z,9.1
2019-05-02T06:22:47.017Z,9.1
2019-05-02T06:23:56.335Z,9.1
2019-05-02T06:25:08.620Z,9
2019-05-02T06:26:18.041Z,9
2019-05-02T06:27:25.610Z,9
2019-05-02T06:28:36.170Z,9.1
2019-05-02T06:29:43.139Z,9.2
2019-05-02T06:30:52.521Z,9.2
2019-05-02T06:32:01.970Z,9.1
2019-05-02T06:33:11.260Z,9.3
2019-05-02T06:34:20.917Z,9.2
2019-05-02T06:35:30.090Z,9.3
2019-05-02T06:36:39.498Z,9.3
2019-05-02T06:37:49.910Z,9.3
2019-05-02T06:38:58.170Z,9.5
2019-05-02T06:40:07.956Z,9.5
2019-05-02T06:41:20.891Z,9.5
2019-05-02T06:42:27.581Z,9.6
2019-05-02T06:43:35.801Z,9.6
2019-05-02T06:44:45.406Z,9.6
2019-05-02T06:45:54.597Z,9.7
2019-05-02T06:47:04.155Z,9.6
2019-05-02T06:48:17.290Z,9.6
2019-05-02T06:49:24.085Z,9.7
2019-05-02T06:50:33.232Z,9.8
2019-05-02T06:51:41.501Z,9.9
2019-05-02T06:52:50.924Z,9.9
2019-05-02T06:54:00.246Z,9.9
2019-05-02T06:55:09.644Z,9.8
2019-05-02T06:56:19.409Z,9.8
2019-05-02T06:57:28.575Z,9.9
2019-05-02T06:58:41.832Z,10
2019-05-02T06:59:49.874Z,9.9
2019-05-02T07:00:58.580Z,10
2019-05-02T07:02:06.233Z,9.7
2019-05-02T07:03:15.569Z,9.7
2019-05-02T07:04:25.154Z,9.8
2019-05-02T07:05:34.283Z,9.9
2019-05-02T07:06:57.151Z,9.8
2019-05-02T07:07:53.155Z,9.9
2019-05-02T07:09:02.725Z,9.8
2019-05-02T07:10:11.867Z,9.9
2019-05-02T07:12:30.881Z,10
2019-05-02T07:13:41.865Z,10
2019-05-02T07:14:49.476Z,10
2019-05-02T07:15:58.837Z,10
2019-05-02T07:17:08.281Z,9.9
2019-05-02T07:18:17.767Z,10
2019-05-02T07:19:27.587Z,10.1
2019-05-02T07:20:40.409Z,10.1
2019-05-02T07:21:45.983Z,10.1
2019-05-02T07:22:55.258Z,10
2019-05-02T07:24:04.759Z,10.1
2019-05-02T07:25:14.413Z,9.9
2019-05-02T07:27:33.577Z,9.9
2019-05-02T07:28:45.497Z,9.9
2019-05-02T07:29:52.017Z,10
2019-05-02T07:31:01.048Z,9.8
2019-05-02T07:32:10.531Z,9.9
2019-05-02T07:33:19.931Z,10
2019-05-02T07:34:29.264Z,9.9
2019-05-02T07:35:38.792Z,10
2019-05-02T07:36:48.061Z,9.9
2019-05-02T07:37:57.561Z,9.9
2019-05-02T07:39:06.950Z,9.9
2019-05-02T07:40:17.030Z,10
2019-05-02T07:41:28.898Z,10
2019-05-02T07:42:36.810Z,10
2019-05-02T07:44:53.895Z,10.1
2019-05-02T07:46:03.377Z,10.1
2019-05-02T07:47:12.938Z,10.1
2019-05-02T07:48:23.250Z,10.1
2019-05-02T07:49:34.095Z,10
2019-05-02T07:50:46.380Z,9.9
2019-05-02T07:51:52.183Z,9.9
2019-05-02T07:53:04.297Z,9.9
2019-05-02T07:54:10.172Z,10
2019-05-02T07:55:20.363Z,10.1
2019-05-02T07:56:30.320Z,10
2019-05-02T07:57:38.467Z,10.1
2019-05-02T07:58:48.139Z,10
2019-05-02T08:00:00.406Z,10
2019-05-02T08:01:07.911Z,10
2019-05-02T08:02:20.154Z,10
2019-05-02T08:03:29.298Z,10.1
2019-05-02T08:04:35.125Z,10.2
2019-05-02T08:05:44.131Z,10.2
2019-05-02T08:06:53.528Z,10.2
2019-05-02T08:08:03.582Z,10.2
2019-05-02T08:09:12.899Z,10.3
2019-05-02T08:10:23.933Z,10.3
2019-05-02T08:11:32.160Z,10.3
2019-05-02T08:12:41.031Z,10.3
2019-05-02T08:13:55.175Z,10.2
2019-05-02T08:15:00.376Z,10
2019-05-02T08:16:09.242Z,10.1
2019-05-02T08:17:19.259Z,10.2
2019-05-02T08:18:30.225Z,10.3
2019-05-02T08:19:41.564Z,10.5
2019-05-02T08:20:50.901Z,10.4
2019-05-02T08:21:56.326Z,10.5
2019-05-02T08:23:05.708Z,10.4
2019-05-02T08:24:15.524Z,10.4
2019-05-02T08:25:25.014Z,10.4
2019-05-02T08:26:40.052Z,10.6
2019-05-02T08:27:43.379Z,10.5
2019-05-02T08:28:53.262Z,10.6
2019-05-02T08:30:04.221Z,10.4
2019-05-02T08:31:13.427Z,10.5
2019-05-02T08:32:21.028Z,10.5
2019-05-02T08:33:34.587Z,10.4
2019-05-02T08:34:40.649Z,10.5
2019-05-02T08:35:49.803Z,10.6
2019-05-02T08:37:02.582Z,10.6
2019-05-02T08:38:12.397Z,10.6
2019-05-02T08:39:17.543Z,10.7
2019-05-02T08:40:26.992Z,10.8
2019-05-02T08:41:36.499Z,10.8
2019-05-02T08:42:46.141Z,10.7
2019-05-02T08:43:55.412Z,10.7
2019-05-02T08:45:04.676Z,10.7
2019-05-02T08:46:14.595Z,10.8
2019-05-02T08:47:23.733Z,10.6
2019-05-02T08:48:36.359Z,10.6
2019-05-02T08:49:42.533Z,10.7
2019-05-02T08:50:51.831Z,10.7
2019-05-02T08:52:01.279Z,10.8
2019-05-02T08:53:14.146Z,10.7
2019-05-02T08:54:20.023Z,10.8
2019-05-02T08:55:32.258Z,11
2019-05-02T08:56:53.088Z,11
2019-05-02T08:57:48.303Z,11
2019-05-02T08:58:57.718Z,11.1
2019-05-02T09:00:08.106Z,11.2
2019-05-02T09:01:16.582Z,11.1
2019-05-02T09:02:27.251Z,11.2
2019-05-02T09:03:54.582Z,11.1
2019-05-02T09:04:57.309Z,11.2
2019-05-02T09:06:05.144Z,11.2
2019-05-02T09:07:03.807Z,11.1
2019-05-02T09:08:14.203Z,11.3
2019-05-02T09:09:27.549Z,11.3
2019-05-02T09:10:32.092Z,11.2
2019-05-02T09:11:43.456Z,11.2
2019-05-02T09:12:52.026Z,11.3
2019-05-02T09:14:02.039Z,11.1
2019-05-02T09:15:11.733Z,11.2
2019-05-02T09:16:21.456Z,11.3
2019-05-02T09:17:35.896Z,11.2
2019-05-02T09:18:41.031Z,11.2
2019-05-02T09:19:59.340Z,11.2
2019-05-02T09:20:57.846Z,11.3
2019-05-02T09:22:07.438Z,11.3
2019-05-02T09:23:16.367Z,11.3
2019-05-02T09:25:36.696Z,11.2
2019-05-02T09:26:47.462Z,11.3
2019-05-02T09:27:54.141Z,11.4
2019-05-02T09:29:05.334Z,11.3
2019-05-02T09:30:16.972Z,11.4
2019-05-02T09:31:22.602Z,11.5
2019-05-02T09:32:32.230Z,11.5
2019-05-02T09:33:46.506Z,11.6
2019-05-02T09:34:51.815Z,11.6
2019-05-02T09:35:59.989Z,11.8
2019-05-02T09:37:11.926Z,11.8
2019-05-02T09:38:18.844Z,11.9
2019-05-02T09:39:32.541Z,11.9
2019-05-02T09:40:37.758Z,11.9
2019-05-02T09:41:47.404Z,12.1
2019-05-02T09:43:01.599Z,11.8
2019-05-02T09:44:08.872Z,11.9
2019-05-02T09:45:16.102Z,11.8
2019-05-02T09:46:25.189Z,11.7
2019-05-02T09:47:46.929Z,11.9
2019-05-02T09:48:44.029Z,12.1
2019-05-02T09:49:53.772Z,12.3
2019-05-02T09:51:04.184Z,12
2019-05-02T09:52:13.095Z,12.3
2019-05-02T09:53:25.417Z,12.3
2019-05-02T09:54:32.273Z,12.4
2019-05-02T09:55:49.697Z,12.2
2019-05-02T09:56:54.942Z,12.2
2019-05-02T09:57:59.890Z,12.2
2019-05-02T09:59:24.155Z,12.2
2019-05-02T10:00:18.997Z,12.4
2019-05-02T10:01:28.415Z,12.5
2019-05-02T10:02:37.801Z,12.3
2019-05-02T10:03:47.378Z,12.1
2019-05-02T10:04:56.791Z,12.2
2019-05-02T10:06:08.241Z,11.9
2019-05-02T10:07:15.771Z,12
2019-05-02T10:08:25.379Z,11.9
2019-05-02T10:09:34.719Z,11.8
2019-05-02T10:10:45.711Z,12
2019-05-02T10:11:53.656Z,11.7
2019-05-02T10:13:03.233Z,11.7
2019-05-02T10:15:22.272Z,11.7
2019-05-02T10:16:31.984Z,11.7
2019-05-02T10:17:42.711Z,11.9
2019-05-02T10:18:52.260Z,11.9
2019-05-02T10:20:01.988Z,11.9
2019-05-02T10:21:13.336Z,11.9
2019-05-02T10:22:18.920Z,11.6
2019-05-02T10:23:28.470Z,11.7
2019-05-02T10:24:37.913Z,11.6
2019-05-02T10:25:47.693Z,11.6
2019-05-02T10:27:03.876Z,11.8
2019-05-02T10:28:06.343Z,11.7
2019-05-02T10:29:15.769Z,11.7
2019-05-02T10:30:25.204Z,11.5
2019-05-02T10:31:37.555Z,11.7
2019-05-02T10:32:47.110Z,11.9
2019-05-02T10:33:53.626Z,11.9
2019-05-02T10:35:03.147Z,12
2019-05-02T10:37:22.087Z,12.1
2019-05-02T10:38:32.527Z,12.2
2019-05-02T10:39:42.273Z,12.1
2019-05-02T10:40:54.037Z,12
2019-05-02T10:42:02.072Z,12
2019-05-02T10:43:09.346Z,12
2019-05-02T10:44:18.813Z,12.1
2019-05-02T10:45:28.307Z,12.2
2019-05-02T10:46:37.989Z,12.2
2019-05-02T10:47:47.482Z,12.2
2019-05-02T10:48:57.106Z,12.1
2019-05-02T10:50:06.180Z,11.8
2019-05-02T10:51:15.925Z,11.9
2019-05-02T10:52:29.410Z,11.9
2019-05-02T10:53:34.668Z,11.9
2019-05-02T10:54:44.074Z,12
2019-05-02T10:57:03.217Z,11.8
2019-05-02T10:58:12.784Z,12.1
2019-05-02T11:00:32.442Z,12.2
2019-05-02T11:01:41.665Z,12.2
2019-05-02T11:02:51.977Z,12.3
2019-05-02T11:04:02.100Z,12.2
2019-05-02T11:05:09.441Z,12.3
2019-05-02T11:06:18.852Z,12.1
2019-05-02T11:07:28.417Z,12.1
2019-05-02T11:08:41.991Z,12.3
2019-05-02T11:09:47.269Z,12.1
2019-05-02T11:10:56.965Z,12.3
2019-05-02T11:12:06.384Z,12.4
2019-05-02T11:14:25.136Z,12.6
2019-05-02T11:16:44.211Z,12.7
2019-05-02T11:17:54.264Z,12.8
2019-05-02T11:19:03.104Z,12.8
2019-05-02T11:20:12.639Z,12.6
2019-05-02T11:21:22.859Z,12.6
2019-05-02T11:22:32.170Z,12.7
2019-05-02T11:23:41.898Z,12.6
2019-05-02T11:24:52.296Z,12.7
2019-05-02T11:27:09.663Z,12.5
2019-05-02T11:28:19.007Z,12.1
2019-05-02T11:29:28.556Z,12
2019-05-02T11:30:38.044Z,11.8
2019-05-02T11:31:47.646Z,11.7
2019-05-02T11:32:57.233Z,12
2019-05-02T11:34:06.506Z,11.8
2019-05-02T11:35:15.959Z,12
2019-05-02T11:36:27.442Z,12
2019-05-02T11:37:34.876Z,12.1
2019-05-02T11:38:46.489Z,11.9
2019-05-02T11:39:59.871Z,12.1
2019-05-02T11:41:04.720Z,12.3
2019-05-02T11:42:17.589Z,12.5
2019-05-02T11:43:23.355Z,12.4
2019-05-02T11:44:32.929Z,12.7
2019-05-02T11:45:42.561Z,12.8
2019-05-02T11:46:52.132Z,12.7
2019-05-02T11:48:08.589Z,12.6
2019-05-02T11:49:12.195Z,12.6
2019-05-02T11:50:22.092Z,12.6
2019-05-02T11:51:29.797Z,12.5
2019-05-02T11:52:39.392Z,12.5
2019-05-02T11:53:48.866Z,12.6
2019-05-02T11:54:58.268Z,12.3
2019-05-02T11:56:10.979Z,12.5
2019-05-02T11:57:20.950Z,12.5
2019-05-02T11:58:26.761Z,12.5
2019-05-02T11:59:36.245Z,12.4
2019-05-02T12:00:49.523Z,12.4
2019-05-02T12:01:59.191Z,12.6
2019-05-02T12:03:04.678Z,12.6
2019-05-02T12:04:16.811Z,12.4
2019-05-02T12:05:26.505Z,12.6
2019-05-02T12:07:42.885Z,12.5
2019-05-02T12:08:52.651Z,12.5
2019-05-02T12:10:04.149Z,12.4
2019-05-02T12:11:13.817Z,12.6
2019-05-02T12:12:22.643Z,12.5
2019-05-02T12:13:32.149Z,12.6
2019-05-02T12:14:39.612Z,12.7
2019-05-02T12:15:49.088Z,12.7
2019-05-02T12:16:58.508Z,12.8
2019-05-02T12:18:08.000Z,12.6
2019-05-02T12:19:17.563Z,12.7
2019-05-02T12:20:28.533Z,12.8
2019-05-02T12:21:39.087Z,12.8
2019-05-02T12:22:46.028Z,12.6
2019-05-02T12:23:55.463Z,12.8
2019-05-02T12:25:05.443Z,12.9
2019-05-02T12:26:18.708Z,12.7
2019-05-02T12:27:24.058Z,12.8
2019-05-02T12:28:33.549Z,12.8
2019-05-02T12:29:42.987Z,12.8
2019-05-02T12:30:52.799Z,12.9
2019-05-02T12:32:02.567Z,12.9
2019-05-02T12:33:12.227Z,12.8
2019-05-02T12:34:21.667Z,12.8
2019-05-02T12:35:32.195Z,12.7
2019-05-02T12:36:42.535Z,12.8
2019-05-02T12:37:52.077Z,12.8
2019-05-02T12:38:59.011Z,12.7
2019-05-02T12:40:08.416Z,12.7
2019-05-02T12:41:21.802Z,12.8
2019-05-02T12:42:27.601Z,12.9
2019-05-02T12:43:37.198Z,13
2019-05-02T12:44:46.352Z,13
2019-05-02T12:45:55.827Z,13.2
2019-05-02T12:47:05.449Z,13
2019-05-02T12:48:14.991Z,13
2019-05-02T12:49:27.796Z,12.7
2019-05-02T12:50:33.934Z,13
2019-05-02T12:51:43.858Z,12.9
2019-05-02T12:52:55.502Z,12.9
2019-05-02T12:54:02.949Z,13.2
2019-05-02T12:55:12.737Z,13.3
2019-05-02T12:56:26.141Z,13.4
2019-05-02T12:57:32.087Z,13.4
2019-05-02T12:59:49.859Z,13.3
2019-05-02T13:00:59.359Z,13.3
2019-05-02T13:02:08.889Z,13.3
2019-05-02T13:03:18.520Z,13.2
2019-05-02T13:04:29.156Z,13.2
2019-05-02T13:05:37.521Z,13.1
2019-05-02T13:06:47.068Z,13.1
2019-05-02T13:07:56.508Z,13.1
2019-05-02T13:09:06.018Z,13
2019-05-02T13:10:15.455Z,13.1
2019-05-02T13:11:24.915Z,13.3
2019-05-02T13:12:34.483Z,13.5
2019-05-02T13:13:44.078Z,13.6
2019-05-02T13:14:54.056Z,13.3
2019-05-02T13:16:03.738Z,13.3
2019-05-02T13:17:13.244Z,13.5
2019-05-02T13:18:23.161Z,13.5
2019-05-02T13:19:39.860Z,13.5
2019-05-02T13:20:41.726Z,13.5
2019-05-02T13:21:57.931Z,13.1
2019-05-02T13:23:01.448Z,13.1
2019-05-02T13:24:13.133Z,13.3
2019-05-02T13:25:19.361Z,13.3
2019-05-02T13:26:32.033Z,13.3
2019-05-02T13:27:44.111Z,13.3
2019-05-02T13:28:47.655Z,13.1
2019-05-02T13:29:57.132Z,13.1
2019-05-02T13:31:06.761Z,13
2019-05-02T13:32:18.626Z,13.2
2019-05-02T13:33:27.225Z,13.1
2019-05-02T13:34:35.368Z,13.3
2019-05-02T13:35:44.768Z,13.3
2019-05-02T13:36:54.212Z,13.4
2019-05-02T13:38:03.909Z,13.4
2019-05-02T13:39:13.269Z,13.3
2019-05-02T13:40:22.961Z,13.3
2019-05-02T13:41:32.291Z,13.4
2019-05-02T13:42:41.926Z,13.5
2019-05-02T13:43:52.439Z,13.4
2019-05-02T13:46:12.029Z,13.5
2019-05-02T13:47:21.831Z,13.7
2019-05-02T13:48:29.583Z,13.9
2019-05-02T13:49:51.140Z,13.9
2019-05-02T13:50:48.661Z,14
2019-05-02T13:51:57.952Z,13.9
2019-05-02T13:53:07.650Z,13.5
2019-05-02T13:54:17.724Z,13.4
2019-05-02T13:55:29.059Z,13.8
2019-05-02T13:58:58.889Z,14.1
2019-05-02T14:00:06.533Z,13.9
2019-05-02T14:01:14.722Z,14.1
2019-05-02T14:02:23.890Z,14.2
2019-05-02T14:03:33.319Z,14.3
2019-05-02T14:04:42.954Z,14
2019-05-02T14:05:53.941Z,14.3
2019-05-02T14:07:07.341Z,14.5
2019-05-02T14:08:12.866Z,14.5
2019-05-02T14:09:22.511Z,14.6
2019-05-02T14:10:39.033Z,14.6
2019-05-02T14:11:43.350Z,14.3
2019-05-02T14:12:52.806Z,14.1
2019-05-02T14:14:01.836Z,13.7
2019-05-02T14:15:11.581Z,13.9
2019-05-02T14:16:19.633Z,14
2019-05-02T14:17:32.120Z,14.1
2019-05-02T14:18:38.833Z,14.1
2019-05-02T14:19:48.235Z,13.5
2019-05-02T14:20:57.791Z,13.8
2019-05-02T14:22:07.372Z,13.7
2019-05-02T14:23:16.947Z,13.8
2019-05-02T14:24:26.401Z,13.7
2019-05-02T14:25:36.941Z,13.6
2019-05-02T14:27:55.708Z,13.7
2019-05-02T14:29:07.049Z,13.7
2019-05-02T14:30:14.309Z,13.8
2019-05-02T14:31:23.647Z,13.7
2019-05-02T14:32:33.178Z,13.7
2019-05-02T14:33:43.384Z,13.7
2019-05-02T14:34:52.535Z,13.7
2019-05-02T14:36:01.908Z,14
2019-05-02T14:37:11.785Z,14.2
2019-05-02T14:38:22.057Z,14.4
2019-05-02T14:39:32.261Z,14.5
2019-05-02T14:41:49.506Z,14.5
2019-05-02T14:43:03.270Z,14.4
2019-05-02T14:44:08.620Z,14.6
2019-05-02T14:45:28.332Z,14.3
2019-05-02T14:46:34.016Z,14.7
2019-05-02T14:47:37.358Z,14.8
2019-05-02T14:48:46.876Z,14.7
2019-05-02T14:50:00.883Z,14.7
2019-05-02T14:51:06.234Z,14.7
2019-05-02T14:52:15.665Z,14.6
2019-05-02T14:54:37.977Z,14.4
2019-05-02T14:55:48.567Z,14.2
2019-05-02T14:58:05.774Z,14.4
2019-05-02T14:59:15.062Z,14.2
2019-05-02T15:00:22.429Z,14.2
2019-05-02T15:01:32.237Z,14.1
2019-05-02T15:02:44.858Z,14
2019-05-02T15:03:52.904Z,14.1
2019-05-02T15:05:02.011Z,13.9
2019-05-02T15:06:11.661Z,14
2019-05-02T15:07:22.757Z,14
2019-05-02T15:08:29.267Z,13.9
2019-05-02T15:09:38.730Z,13.8
2019-05-02T15:10:52.241Z,13.9
2019-05-02T15:11:58.174Z,13.9
2019-05-02T15:13:07.838Z,13.9
2019-05-02T15:14:19.615Z,13.9
2019-05-02T15:15:27.875Z,13.9
2019-05-02T15:16:41.956Z,14
2019-05-02T15:17:45.527Z,14.3
2019-05-02T15:18:56.962Z,14.4
2019-05-02T15:20:05.127Z,14.3
2019-05-02T15:21:16.199Z,14.3
2019-05-02T15:22:27.455Z,14.1
2019-05-02T15:23:33.171Z,14.4
2019-05-02T15:24:43.573Z,14.7
2019-05-02T15:27:10.935Z,14.9
2019-05-02T15:28:13.050Z,15
2019-05-02T15:29:24.968Z,15
2019-05-02T15:30:30.817Z,15.1
2019-05-02T15:31:42.034Z,14.6
2019-05-02T15:32:49.726Z,14.6
2019-05-02T15:34:04.908Z,14.5
2019-05-02T15:36:18.401Z,14.6
2019-05-02T15:37:27.936Z,14.4
2019-05-02T15:38:41.951Z,14.4
2019-05-02T15:40:59.106Z,14.2
2019-05-02T15:42:06.326Z,14
2019-05-02T15:43:15.570Z,14
2019-05-02T15:45:36.585Z,13.9
2019-05-02T15:46:45.006Z,14
2019-05-02T15:47:53.686Z,14
2019-05-02T15:49:05.634Z,13.8
2019-05-02T15:50:14.631Z,13.9
2019-05-02T15:51:23.062Z,13.9
2019-05-02T15:52:32.615Z,13.8
2019-05-02T15:53:44.423Z,13.7
2019-05-02T15:54:51.585Z,13.8
2019-05-02T15:57:12.598Z,13.8
2019-05-02T15:58:23.606Z,13.7
2019-05-02T15:59:28.898Z,13.8
2019-05-02T16:00:38.704Z,13.9
2019-05-02T16:01:48.127Z,13.9
2019-05-02T16:03:01.350Z,13.8
2019-05-02T16:04:06.947Z,13.8
2019-05-02T16:05:16.724Z,13.6
2019-05-02T16:06:31.409Z,13.8
2019-05-02T16:07:37.927Z,13.7
2019-05-02T16:08:44.970Z,13.6
2019-05-02T16:09:57.086Z,13.7
2019-05-02T16:11:04.011Z,13.6
2019-05-02T16:12:13.483Z,13.6
2019-05-02T16:13:22.985Z,13.7
2019-05-02T16:14:35.815Z,13.7
2019-05-02T16:15:42.765Z,13.7
2019-05-02T16:16:52.149Z,13.6
2019-05-02T16:18:04.013Z,13.7
2019-05-02T16:19:14.513Z,13.6
2019-05-02T16:20:19.987Z,13.5
2019-05-02T16:21:30.070Z,13.5
2019-05-02T16:22:44.292Z,13.4
2019-05-02T16:23:48.843Z,13.3
2019-05-02T16:24:57.982Z,13.3
2019-05-02T16:26:13.817Z,13.3
2019-05-02T16:27:21.768Z,13.2